createdAt,value
2023-02-28T00:02:08.558Z,99.40
2023-02-28T00:05:30.237Z,99.30
2023-02-28T00:08:51.850Z,99.40
2023-02-28T00:12:13.467Z,99.60
2023-02-28T00:15:36.409Z,99.60
2023-02-28T00:18:58.002Z,99.70
2023-02-28T00:22:20.666Z,99.80
2023-02-28T00:25:42.262Z,99.80
2023-02-28T00:29:03.950Z,99.80
2023-02-28T00:32:27.006Z,99.80
2023-02-28T00:35:48.665Z,99.90
2023-02-28T00:39:10.282Z,99.90
2023-02-28T00:42:31.891Z,99.90
2023-02-28T00:45:53.513Z,99.90
2023-02-28T00:49:16.534Z,99.90
2023-02-28T00:52:38.186Z,99.90
2023-02-28T00:55:59.786Z,99.90
2023-02-28T00:59:21.404Z,99.90
2023-02-28T01:02:43.012Z,99.80
2023-02-28T01:06:06.210Z,99.80
2023-02-28T01:09:27.800Z,99.90
2023-02-28T01:12:49.435Z,99.90
2023-02-28T01:16:11.320Z,99.90
2023-02-28T01:19:33.016Z,99.90
2023-02-28T01:22:55.973Z,99.90
2023-02-28T01:26:18.458Z,99.90
2023-02-28T01:29:40.218Z,99.90
2023-02-28T01:33:02.163Z,99.90
2023-02-28T01:36:24.712Z,99.90
2023-02-28T01:39:47.665Z,99.90
2023-02-28T01:43:17.585Z,99.90
2023-02-28T01:46:39.235Z,99.90
2023-02-28T01:50:01.841Z,99.90
2023-02-28T01:53:27.326Z,99.90
2023-02-28T01:56:53.053Z,99.90
2023-02-28T02:00:15.984Z,99.90
2023-02-28T02:03:37.750Z,99.90
2023-02-28T02:06:59.462Z,99.90
2023-02-28T02:10:22.308Z,99.90
2023-02-28T02:13:53.671Z,99.90
2023-02-28T02:17:25.611Z,99.90
2023-02-28T02:21:05.995Z,99.90
2023-02-28T02:24:45.260Z,99.90
2023-02-28T02:28:19.862Z,99.90
2023-02-28T02:32:05.691Z,99.90
2023-02-28T02:35:30.670Z,99.90
2023-02-28T02:38:54.359Z,99.90
2023-02-28T02:42:17.274Z,99.90
2023-02-28T02:45:40.832Z,99.90
2023-02-28T02:49:05.301Z,99.90
2023-02-28T02:52:30.805Z,99.90
2023-02-28T02:55:53.739Z,99.90
2023-02-28T02:59:17.623Z,99.90
2023-02-28T03:02:41.283Z,99.90
2023-02-28T03:06:03.605Z,99.90
2023-02-28T03:09:27.005Z,99.90
2023-02-28T03:12:51.748Z,99.90
2023-02-28T03:16:23.816Z,99.90
2023-02-28T03:19:48.415Z,99.90
2023-02-28T03:23:16.060Z,99.90
2023-02-28T03:26:41.076Z,99.90
2023-02-28T03:30:05.341Z,99.90
2023-02-28T03:33:29.241Z,99.90
2023-02-28T03:36:53.118Z,99.90
2023-02-28T03:40:16.807Z,99.90
2023-02-28T03:43:41.872Z,99.90
2023-02-28T03:47:04.813Z,99.90
2023-02-28T03:50:28.266Z,99.90
2023-02-28T03:53:52.000Z,99.90
2023-02-28T03:57:16.354Z,99.90
2023-02-28T04:00:40.599Z,99.90
2023-02-28T04:04:02.547Z,99.90
2023-02-28T04:07:24.187Z,99.90
2023-02-28T04:10:49.062Z,99.90
2023-02-28T04:14:10.928Z,99.90
2023-02-28T04:17:33.872Z,99.90
2023-02-28T04:20:55.474Z,99.90
2023-02-28T04:24:17.904Z,99.90
2023-02-28T04:27:39.505Z,99.90
2023-02-28T04:31:02.104Z,99.90
2023-02-28T04:34:25.623Z,99.90
2023-02-28T04:37:47.239Z,99.90
2023-02-28T04:41:08.835Z,99.90
2023-02-28T04:44:30.459Z,99.90
2023-02-28T04:47:52.051Z,99.90
2023-02-28T04:51:15.551Z,99.90
2023-02-28T04:54:37.171Z,99.90
2023-02-28T04:57:58.961Z,99.90
2023-02-28T05:01:22.263Z,99.90
2023-02-28T05:04:43.910Z,99.90
2023-02-28T05:08:06.954Z,99.90
2023-02-28T05:11:29.695Z,99.90
2023-02-28T05:14:51.565Z,99.90
2023-02-28T05:18:13.187Z,99.90
2023-02-28T05:21:36.425Z,99.90
2023-02-28T05:24:59.406Z,99.90
2023-02-28T05:28:21.057Z,99.90
2023-02-28T05:31:42.758Z,99.90
2023-02-28T05:35:04.857Z,99.90
2023-02-28T05:38:26.443Z,99.90
2023-02-28T05:41:49.401Z,99.90
2023-02-28T05:45:11.519Z,99.90
2023-02-28T05:48:33.631Z,99.90
2023-02-28T05:51:55.258Z,99.90
2023-02-28T05:55:17.001Z,99.90
2023-02-28T05:58:39.966Z,99.90
2023-02-28T06:02:01.565Z,99.90
2023-02-28T06:05:23.373Z,99.90
2023-02-28T06:08:44.954Z,99.90
2023-02-28T06:12:07.367Z,99.90
2023-02-28T06:15:30.732Z,99.90
2023-02-28T06:18:52.422Z,99.90
2023-02-28T06:22:14.027Z,99.90
2023-02-28T06:25:35.599Z,99.90
2023-02-28T06:28:57.193Z,99.90
2023-02-28T06:32:20.408Z,99.90
2023-02-28T06:35:44.242Z,99.90
2023-02-28T06:39:05.901Z,99.90
2023-02-28T06:42:27.646Z,99.90
2023-02-28T06:45:49.282Z,99.90
2023-02-28T06:49:12.539Z,99.90
2023-02-28T06:52:34.106Z,99.90
2023-02-28T06:55:55.666Z,99.90
2023-02-28T06:59:17.270Z,99.90
2023-02-28T07:02:38.965Z,99.90
2023-02-28T07:06:01.914Z,99.90
2023-02-28T07:09:23.536Z,99.90
2023-02-28T07:12:45.109Z,99.90
2023-02-28T07:16:08.652Z,99.90
2023-02-28T07:19:30.292Z,99.90
2023-02-28T07:22:53.365Z,99.90
2023-02-28T07:26:15.985Z,99.90
2023-02-28T07:29:37.606Z,99.90
2023-02-28T07:32:59.186Z,99.90
2023-02-28T07:36:20.770Z,99.90
2023-02-28T07:39:43.723Z,99.90
2023-02-28T07:43:05.307Z,99.90
2023-02-28T07:46:30.262Z,99.90
2023-02-28T07:49:52.240Z,99.90
2023-02-28T07:53:13.834Z,99.90
2023-02-28T07:56:36.789Z,99.90
2023-02-28T07:59:58.558Z,99.90
2023-02-28T08:03:20.707Z,99.90
2023-02-28T08:06:42.327Z,99.90
2023-02-28T08:10:04.429Z,99.90
2023-02-28T08:13:27.436Z,99.90
2023-02-28T08:16:49.034Z,99.90
2023-02-28T08:20:11.404Z,99.90
2023-02-28T08:23:33.040Z,99.90
2023-02-28T08:26:54.613Z,99.90
2023-02-28T08:30:17.744Z,99.90
2023-02-28T08:33:39.355Z,99.90
2023-02-28T08:37:01.004Z,99.90
2023-02-28T08:40:22.599Z,99.90
2023-02-28T08:43:44.216Z,99.90
2023-02-28T08:47:07.343Z,99.90
2023-02-28T08:50:28.958Z,99.90
2023-02-28T08:53:50.618Z,99.90
2023-02-28T08:57:12.235Z,99.90
2023-02-28T09:00:33.826Z,99.90
2023-02-28T09:07:23.484Z,99.90
2023-02-28T09:10:45.073Z,99.90
2023-02-28T09:14:06.762Z,99.90
2023-02-28T09:17:30.800Z,99.90
2023-02-28T09:20:54.052Z,99.90
2023-02-28T09:24:15.639Z,99.90
2023-02-28T09:27:37.224Z,99.90
2023-02-28T09:30:58.905Z,99.60
2023-02-28T09:34:20.574Z,99.60
2023-02-28T09:37:43.538Z,99.90
2023-02-28T09:41:10.934Z,99.20
2023-02-28T09:44:36.236Z,99.10
2023-02-28T09:47:59.720Z,99.10
2023-02-28T09:51:29.344Z,98.90
2023-02-28T09:54:52.872Z,99.00
2023-02-28T09:58:19.187Z,98.80
2023-02-28T10:01:44.792Z,98.30
2023-02-28T10:05:07.855Z,98.70
2023-02-28T10:08:31.213Z,98.60
2023-02-28T10:11:58.422Z,98.50
2023-02-28T10:15:22.419Z,98.20
2023-02-28T10:18:46.879Z,98.20
2023-02-28T10:22:11.331Z,98.00
2023-02-28T10:25:32.958Z,98.00
2023-02-28T10:28:55.957Z,97.40
2023-02-28T10:32:18.603Z,98.10
2023-02-28T10:35:40.287Z,97.60
2023-02-28T10:39:01.911Z,97.70
2023-02-28T10:42:24.994Z,97.20
2023-02-28T10:45:56.236Z,98.00
2023-02-28T10:49:20.777Z,97.10
2023-02-28T10:52:42.484Z,97.00
2023-02-28T10:56:04.963Z,97.40
2023-02-28T10:59:30.463Z,97.10
2023-02-28T11:02:53.445Z,96.70
2023-02-28T11:06:16.914Z,96.60
2023-02-28T11:09:39.694Z,96.50
2023-02-28T11:13:01.946Z,96.50
2023-02-28T11:16:32.700Z,96.50
2023-02-28T11:19:57.106Z,96.30
2023-02-28T11:23:19.372Z,96.50
2023-02-28T11:26:42.338Z,96.70
2023-02-28T11:30:04.422Z,96.80
2023-02-28T11:33:28.142Z,97.10
2023-02-28T11:36:51.877Z,97.00
2023-02-28T11:40:13.930Z,97.40
2023-02-28T11:43:45.161Z,97.20
2023-02-28T11:47:10.093Z,96.10
2023-02-28T11:50:40.732Z,96.00
2023-02-28T11:54:12.618Z,95.80
2023-02-28T11:57:38.557Z,96.10
2023-02-28T12:01:12.757Z,95.70
2023-02-28T12:04:42.818Z,95.40
2023-02-28T12:08:10.898Z,95.70
2023-02-28T12:11:41.674Z,95.60
2023-02-28T12:15:33.312Z,96.00
2023-02-28T12:19:01.280Z,96.00
2023-02-28T12:22:32.880Z,95.90
2023-02-28T12:26:03.307Z,95.50
2023-02-28T12:29:27.644Z,95.70
2023-02-28T12:32:50.801Z,95.60
2023-02-28T12:36:13.820Z,95.90
2023-02-28T12:39:49.544Z,95.20
2023-02-28T12:43:13.535Z,95.70
2023-02-28T12:46:37.812Z,95.60
2023-02-28T12:50:00.322Z,95.50
2023-02-28T12:53:24.445Z,95.50
2023-02-28T12:56:48.824Z,95.70
2023-02-28T13:00:13.051Z,95.70
2023-02-28T13:03:55.508Z,95.00
2023-02-28T13:07:30.121Z,94.90
2023-02-28T13:10:52.334Z,95.00
2023-02-28T13:14:25.032Z,94.80
2023-02-28T13:17:49.073Z,94.80
2023-02-28T13:21:23.714Z,94.50
2023-02-28T13:24:47.274Z,94.90
2023-02-28T13:28:10.507Z,95.40
2023-02-28T13:31:32.405Z,94.60
2023-02-28T13:35:08.987Z,95.10
2023-02-28T13:38:39.303Z,94.90
2023-02-28T13:42:23.079Z,94.20
2023-02-28T13:45:59.670Z,94.00
2023-02-28T13:49:25.440Z,94.70
2023-02-28T13:52:49.819Z,94.00
2023-02-28T13:56:24.314Z,93.90
2023-02-28T13:59:51.329Z,94.30
2023-02-28T14:03:24.874Z,94.10
2023-02-28T14:06:51.057Z,94.20
2023-02-28T14:10:22.368Z,93.50
2023-02-28T14:13:46.428Z,94.20
2023-02-28T14:17:09.045Z,93.40
2023-02-28T14:20:32.774Z,93.60
2023-02-28T14:24:03.305Z,93.70
2023-02-28T14:27:32.243Z,93.40
2023-02-28T14:30:58.532Z,93.30
2023-02-28T14:34:31.554Z,93.70
2023-02-28T14:37:54.163Z,92.90
2023-02-28T14:41:19.712Z,93.40
2023-02-28T14:44:41.518Z,94.20
2023-02-28T14:48:09.379Z,92.80
2023-02-28T14:51:31.077Z,93.30
2023-02-28T14:54:54.217Z,93.10
2023-02-28T14:58:22.475Z,93.10
2023-02-28T15:01:44.160Z,93.40
2023-02-28T15:05:23.380Z,93.70
2023-02-28T15:08:45.265Z,93.70
2023-02-28T15:12:07.329Z,93.20
2023-02-28T15:15:40.774Z,93.00
2023-02-28T15:19:12.366Z,93.70
2023-02-28T15:22:36.967Z,93.60
2023-02-28T15:25:59.258Z,93.70
2023-02-28T15:29:22.195Z,93.80
2023-02-28T15:32:43.880Z,94.00
2023-02-28T15:36:06.768Z,93.70
2023-02-28T15:39:30.077Z,93.80
2023-02-28T15:43:04.090Z,93.90
2023-02-28T15:46:25.693Z,94.00
2023-02-28T15:49:49.574Z,94.10
2023-02-28T15:53:16.045Z,93.90
2023-02-28T15:56:39.881Z,94.50
2023-02-28T16:00:02.387Z,94.60
2023-02-28T16:03:24.709Z,94.20
2023-02-28T16:06:46.447Z,94.80
2023-02-28T16:10:08.785Z,94.40
2023-02-28T16:13:31.777Z,94.40
2023-02-28T16:16:54.615Z,94.60
2023-02-28T16:20:16.926Z,95.10
2023-02-28T16:23:38.562Z,94.90
2023-02-28T16:27:00.676Z,95.20
2023-02-28T16:30:24.906Z,95.10
2023-02-28T16:33:47.991Z,95.70
2023-02-28T16:37:12.162Z,95.40
2023-02-28T16:40:34.844Z,95.50
2023-02-28T16:43:57.788Z,95.60
2023-02-28T16:47:20.763Z,95.60
2023-02-28T16:50:43.145Z,95.90
2023-02-28T16:54:04.918Z,96.20
2023-02-28T16:57:26.500Z,96.60
2023-02-28T17:00:48.285Z,96.30
2023-02-28T17:04:11.811Z,96.60
2023-02-28T17:07:33.608Z,96.60
2023-02-28T17:10:55.208Z,96.90
2023-02-28T17:14:17.220Z,97.10
2023-02-28T17:17:39.299Z,97.10
2023-02-28T17:21:04.200Z,97.10
2023-02-28T17:24:31.105Z,97.40
2023-02-28T17:27:53.192Z,97.40
2023-02-28T17:31:14.997Z,97.50
2023-02-28T17:34:36.635Z,97.50
2023-02-28T17:37:59.653Z,97.70
2023-02-28T17:41:21.515Z,97.90
2023-02-28T17:44:43.442Z,97.90
2023-02-28T17:48:05.401Z,98.00
2023-02-28T17:51:27.073Z,98.10
2023-02-28T17:54:50.055Z,98.20
2023-02-28T17:58:11.986Z,98.40
2023-02-28T18:01:33.613Z,98.60
2023-02-28T18:04:55.244Z,99.10
2023-02-28T18:08:17.176Z,99.10
2023-02-28T18:11:40.104Z,99.10
2023-02-28T18:15:01.725Z,99.30
2023-02-28T18:18:23.336Z,99.30
2023-02-28T18:21:45.618Z,99.40
2023-02-28T18:25:08.365Z,99.40
2023-02-28T18:28:31.304Z,99.40
2023-02-28T18:31:53.492Z,99.60
2023-02-28T18:35:15.282Z,99.70
2023-02-28T18:38:37.290Z,99.90
2023-02-28T18:41:59.818Z,99.90
2023-02-28T18:45:22.881Z,99.90
2023-02-28T18:48:44.802Z,99.90
2023-02-28T18:52:06.428Z,99.90
2023-02-28T18:55:28.032Z,99.90
2023-02-28T18:58:50.165Z,99.90
2023-02-28T19:02:13.456Z,99.90
2023-02-28T19:05:35.075Z,99.90
2023-02-28T19:08:57.587Z,99.90
2023-02-28T19:12:19.174Z,99.90
2023-02-28T19:15:40.740Z,99.90
2023-02-28T19:19:03.797Z,99.90
2023-02-28T19:22:25.733Z,99.90
2023-02-28T19:25:48.913Z,99.90
2023-02-28T19:29:10.616Z,99.90
2023-02-28T19:32:32.417Z,99.90
2023-02-28T19:35:55.637Z,99.90
2023-02-28T19:39:17.261Z,99.90
2023-02-28T19:42:42.064Z,99.90
2023-02-28T19:46:04.691Z,99.90
2023-02-28T19:49:26.917Z,99.90
2023-02-28T19:52:49.971Z,99.90
2023-02-28T19:56:11.861Z,99.90
2023-02-28T19:59:39.242Z,99.90
2023-02-28T20:03:01.645Z,99.90
2023-02-28T20:06:23.298Z,99.90
2023-02-28T20:09:46.520Z,99.90
2023-02-28T20:13:08.091Z,99.90
2023-02-28T20:16:33.429Z,99.90
2023-02-28T20:19:55.406Z,99.90
2023-02-28T20:23:17.265Z,99.90
2023-02-28T20:26:40.367Z,99.90
2023-02-28T20:30:01.994Z,99.90
2023-02-28T20:33:23.984Z,99.90
2023-02-28T20:36:48.119Z,99.90
2023-02-28T20:40:12.527Z,99.90
2023-02-28T20:43:35.859Z,99.90
2023-02-28T20:46:57.969Z,99.90
2023-02-28T20:50:19.929Z,99.90
2023-02-28T20:53:41.542Z,99.90
2023-02-28T20:57:04.049Z,99.90
2023-02-28T21:00:30.097Z,99.90
2023-02-28T21:03:52.470Z,99.90
2023-02-28T21:07:14.046Z,99.90
2023-02-28T21:10:35.621Z,99.90
2023-02-28T21:13:58.895Z,99.90
2023-02-28T21:17:21.800Z,99.90
2023-02-28T21:20:43.465Z,99.90
2023-02-28T21:24:05.369Z,99.90
2023-02-28T21:27:26.955Z,99.90
2023-02-28T21:30:48.590Z,99.90
2023-02-28T21:34:12.303Z,99.90
2023-02-28T21:37:33.906Z,99.90
2023-02-28T21:40:55.525Z,99.90
2023-02-28T21:44:17.147Z,99.90
2023-02-28T21:47:38.824Z,99.90
2023-02-28T21:51:02.783Z,99.90
2023-02-28T21:54:24.711Z,99.90
2023-02-28T21:57:46.301Z,99.90
2023-02-28T22:01:09.441Z,99.90
2023-02-28T22:04:31.064Z,99.90
2023-02-28T22:07:53.993Z,99.90
2023-02-28T22:11:16.511Z,99.90
2023-02-28T22:14:38.562Z,99.90
2023-02-28T22:18:00.157Z,99.90
2023-02-28T22:21:22.152Z,99.90
2023-02-28T22:24:45.113Z,99.90
2023-02-28T22:28:06.709Z,99.90
2023-02-28T22:31:28.918Z,99.90
2023-02-28T22:34:50.689Z,99.90
2023-02-28T22:38:12.527Z,99.90
2023-02-28T22:41:35.568Z,99.90
2023-02-28T22:44:57.149Z,99.90
2023-02-28T22:48:18.726Z,99.90
2023-02-28T22:51:40.364Z,99.90
2023-02-28T22:55:02.041Z,99.90
2023-02-28T22:58:25.057Z,99.90
2023-02-28T23:01:46.717Z,99.90
2023-02-28T23:05:08.732Z,99.90
2023-02-28T23:08:30.427Z,99.90
2023-02-28T23:11:52.059Z,99.90
2023-02-28T23:15:15.048Z,99.90
2023-02-28T23:18:36.710Z,99.90
2023-02-28T23:21:58.691Z,99.90
2023-02-28T23:25:20.622Z,99.90
2023-02-28T23:28:42.866Z,99.90
2023-02-28T23:32:06.082Z,99.90
2023-02-28T23:35:27.782Z,99.90
2023-02-28T23:38:50.168Z,99.90
2023-02-28T23:42:11.737Z,99.90
2023-02-28T23:45:33.411Z,99.90
2023-02-28T23:48:56.357Z,99.90
2023-02-28T23:52:17.955Z,99.90
2023-02-28T23:55:44.894Z,99.90
2023-02-28T23:59:06.594Z,99.90
